Time;durP1;ratioP1;P1;durP2;ratioP2;P2;SDS_P1;SDS_P2;PMS_P1;PMS_P2;Temp;Humidity;BMP_temperature;BMP_pressure;BME280_temperature;BME280_humidity;BME280_pressure;Samples;Min_cycle;Max_cycle;Signal;HPM_P1;HPM_P2
2021/11/24 00:00:08;;;;;;;431.77;411.97;;;6.90;99.90;;;;;;4376728;32;20609;-61
2021/11/24 00:02:35;;;;;;;418.93;399.87;;;6.90;99.90;;;;;;4375731;32;20233;-61
2021/11/24 00:05:02;;;;;;;433.93;414.17;;;6.90;99.90;;;;;;4375690;32;20183;-61
2021/11/24 00:07:29;;;;;;;433.83;414.03;;;6.80;99.90;;;;;;4375811;32;20216;-61
2021/11/24 00:09:57;;;;;;;418.77;399.73;;;6.80;99.90;;;;;;4375385;32;20172;-61
2021/11/24 00:12:24;;;;;;;433.47;414.07;;;6.80;99.90;;;;;;4374843;32;20168;-61
2021/11/24 00:14:51;;;;;;;415.33;396.43;;;6.80;99.90;;;;;;4366707;32;20190;-61
2021/11/24 00:17:18;;;;;;;426.43;406.90;;;6.80;99.90;;;;;;4376280;32;20153;-62
2021/11/24 00:19:45;;;;;;;424.97;405.37;;;6.80;99.90;;;;;;4375467;32;20176;-61
2021/11/24 00:22:12;;;;;;;419.00;399.37;;;6.90;99.90;;;;;;4377472;32;20152;-61
2021/11/24 00:24:39;;;;;;;419.07;399.83;;;6.80;99.90;;;;;;4376246;32;20165;-61
2021/11/24 00:27:07;;;;;;;441.70;421.40;;;6.90;99.90;;;;;;4375680;32;20171;-61
2021/11/24 00:29:34;;;;;;;428.87;409.27;;;6.90;99.90;;;;;;4375841;32;20580;-61
2021/11/24 00:32:00;;;;;;;422.13;403.00;;;6.90;99.90;;;;;;4375310;32;20175;-61
2021/11/24 00:34:27;;;;;;;427.70;408.47;;;6.90;99.90;;;;;;4376750;32;20204;-60
2021/11/24 00:36:55;;;;;;;418.47;399.87;;;6.80;99.90;;;;;;4377245;32;20195;-61
2021/11/24 00:39:22;;;;;;;423.17;403.50;;;6.90;99.90;;;;;;4376562;32;20156;-61
2021/11/24 00:41:49;;;;;;;409.77;390.97;;;6.90;99.90;;;;;;4375648;32;20177;-61
2021/11/24 00:44:17;;;;;;;441.07;420.80;;;6.80;99.90;;;;;;4376562;32;20562;-61
2021/11/24 00:46:44;;;;;;;411.10;392.37;;;6.80;99.90;;;;;;4375533;32;20493;-61
2021/11/24 00:49:12;;;;;;;445.27;424.80;;;6.70;99.90;;;;;;4375048;32;20499;-61
2021/11/24 00:51:39;;;;;;;452.70;431.83;;;6.80;99.90;;;;;;4375484;32;20204;-62
2021/11/24 00:54:06;;;;;;;438.27;417.63;;;6.80;99.90;;;;;;4376758;32;20588;-61
2021/11/24 00:56:33;;;;;;;435.47;415.63;;;6.80;99.90;;;;;;4375131;32;20195;-60
2021/11/24 00:59:00;;;;;;;437.07;417.07;;;6.80;99.90;;;;;;4376406;32;20198;-61
2021/11/24 01:01:28;;;;;;;435.57;415.63;;;6.70;99.90;;;;;;4377225;32;20182;-61
2021/11/24 01:03:55;;;;;;;417.73;398.57;;;6.60;99.90;;;;;;4376599;32;20619;-61
2021/11/24 01:06:22;;;;;;;432.83;413.27;;;6.60;99.90;;;;;;4376306;32;20179;-61
2021/11/24 01:08:49;;;;;;;427.37;407.63;;;6.50;99.90;;;;;;4376482;32;20231;-61
2021/11/24 01:11:16;;;;;;;409.20;390.80;;;6.50;99.90;;;;;;4376297;32;20152;-61
2021/11/24 01:13:44;;;;;;;416.07;397.53;;;6.50;99.90;;;;;;4376285;32;20157;-61
2021/11/24 01:16:11;;;;;;;404.33;386.17;;;6.40;99.90;;;;;;4375296;32;20168;-61
2021/11/24 01:18:39;;;;;;;391.40;374.27;;;6.30;99.90;;;;;;4375314;32;20167;-61
2021/11/24 01:21:07;;;;;;;400.63;382.83;;;6.30;99.90;;;;;;4375260;32;20152;-61
2021/11/24 01:23:34;;;;;;;403.53;385.37;;;6.20;99.90;;;;;;4375073;32;20208;-61
2021/11/24 01:26:01;;;;;;;411.60;393.20;;;6.20;99.90;;;;;;4377022;32;20581;-61
2021/11/24 01:28:28;;;;;;;404.20;386.30;;;6.20;99.90;;;;;;4375273;32;20196;-61
2021/11/24 01:30:54;;;;;;;419.57;400.67;;;6.20;99.90;;;;;;4370004;32;20172;-60
2021/11/24 01:33:21;;;;;;;445.20;425.33;;;6.30;99.90;;;;;;4376299;32;20153;-61
2021/11/24 01:35:50;;;;;;;435.17;415.30;;;6.40;99.90;;;;;;4376866;32;20153;-61
2021/11/24 01:38:16;;;;;;;426.97;407.90;;;6.40;99.90;;;;;;4375270;32;20200;-62
2021/11/24 01:40:43;;;;;;;427.70;408.23;;;6.40;99.90;;;;;;4375604;32;20227;-62
2021/11/24 01:43:10;;;;;;;423.23;404.13;;;6.50;99.90;;;;;;4378264;32;20153;-61
2021/11/24 01:45:38;;;;;;;453.60;433.13;;;6.50;99.90;;;;;;4377710;32;20160;-61
2021/11/24 01:48:05;;;;;;;440.63;420.73;;;6.60;99.90;;;;;;4377315;32;20455;-62
2021/11/24 01:50:33;;;;;;;441.00;420.87;;;6.50;99.90;;;;;;4379623;32;20164;-62
2021/11/24 01:53:02;;;;;;;419.77;400.30;;;6.60;99.90;;;;;;4378891;32;20156;-61
2021/11/24 01:55:28;;;;;;;440.73;420.60;;;6.60;99.90;;;;;;4377704;32;20223;-62
2021/11/24 01:57:55;;;;;;;447.07;426.70;;;6.80;99.90;;;;;;4378089;32;20204;-61
2021/11/24 02:00:25;;;;;;;435.83;416.33;;;6.70;99.90;;;;;;4379367;32;20212;-61
2021/11/24 02:02:53;;;;;;;424.33;405.00;;;6.70;99.90;;;;;;4377698;32;20174;-60
2021/11/24 02:05:20;;;;;;;443.87;423.70;;;6.80;99.90;;;;;;4377441;32;20216;-61
2021/11/24 02:07:47;;;;;;;445.93;425.77;;;6.80;99.90;;;;;;4377656;32;20195;-61
2021/11/24 02:10:15;;;;;;;427.87;408.43;;;6.80;99.90;;;;;;4378584;32;20573;-61
2021/11/24 02:12:42;;;;;;;410.47;391.87;;;6.80;99.90;;;;;;4378815;32;20205;-61
2021/11/24 02:15:10;;;;;;;432.67;412.87;;;6.80;99.90;;;;;;4376920;32;20172;-61
2021/11/24 02:17:37;;;;;;;437.03;417.43;;;6.80;99.90;;;;;;4377409;32;20168;-61
2021/11/24 02:20:06;;;;;;;429.87;410.73;;;6.90;99.90;;;;;;4378452;32;20168;-61
2021/11/24 02:22:34;;;;;;;432.63;413.10;;;6.90;99.90;;;;;;4379029;32;20200;-61
2021/11/24 02:25:01;;;;;;;428.53;409.13;;;6.90;99.90;;;;;;4379211;32;20149;-61
2021/11/24 02:27:27;;;;;;;417.63;399.10;;;6.90;99.90;;;;;;4377424;32;20175;-62
2021/11/24 02:29:54;;;;;;;414.30;395.70;;;7.00;99.90;;;;;;4377181;32;20218;-61
2021/11/24 02:32:21;;;;;;;408.07;389.50;;;7.00;99.90;;;;;;4376594;32;20180;-61
2021/11/24 02:34:48;;;;;;;412.30;392.93;;;7.00;99.90;;;;;;4377392;32;20196;-62
2021/11/24 02:37:15;;;;;;;435.23;415.17;;;7.00;99.90;;;;;;4377824;32;20232;-61
2021/11/24 02:39:43;;;;;;;427.00;407.77;;;7.00;99.90;;;;;;4377152;32;20223;-61
2021/11/24 02:42:10;;;;;;;439.00;419.17;;;7.00;99.90;;;;;;4378648;32;20235;-61
2021/11/24 02:44:39;;;;;;;428.50;409.17;;;7.00;99.90;;;;;;4377961;32;20218;-61
2021/11/24 02:47:10;;;;;;;411.70;393.33;;;7.00;99.90;;;;;;4375588;32;20215;-60
2021/11/24 02:49:38;;;;;;;435.00;415.40;;;7.00;99.90;;;;;;4362340;32;20148;-61
2021/11/24 02:52:06;;;;;;;449.23;428.77;;;7.10;99.90;;;;;;4376548;32;20679;-61
2021/11/24 02:54:32;;;;;;;419.03;400.13;;;7.10;99.90;;;;;;4377062;32;20163;-61
2021/11/24 02:57:01;;;;;;;411.97;393.30;;;7.10;99.90;;;;;;4374221;32;20177;-61
2021/11/24 02:59:28;;;;;;;423.10;403.87;;;7.10;99.90;;;;;;4363653;32;20599;-61
2021/11/24 03:01:55;;;;;;;430.27;411.20;;;7.10;99.90;;;;;;4363626;32;20192;-61
2021/11/24 03:04:27;;;;;;;421.20;402.30;;;7.10;99.90;;;;;;4365246;32;20624;-61
2021/11/24 03:06:55;;;;;;;435.67;416.10;;;7.10;99.90;;;;;;4376684;32;20212;-61
2021/11/24 03:09:21;;;;;;;432.40;412.70;;;7.10;99.90;;;;;;4378423;32;20625;-61
2021/11/24 03:11:48;;;;;;;405.97;388.00;;;7.20;99.90;;;;;;4373376;32;20225;-61
2021/11/24 03:14:16;;;;;;;413.63;395.13;;;7.10;99.90;;;;;;4363389;32;20191;-61
2021/11/24 03:16:43;;;;;;;431.07;411.80;;;7.30;99.90;;;;;;4361623;33;20171;-61
2021/11/24 03:19:10;;;;;;;422.20;403.33;;;7.20;99.90;;;;;;4366759;32;20620;-61
2021/11/24 03:21:37;;;;;;;422.20;403.37;;;7.20;99.90;;;;;;4372144;32;20216;-61
2021/11/24 03:24:04;;;;;;;422.27;403.37;;;7.10;99.90;;;;;;4363288;32;20145;-61
2021/11/24 03:26:32;;;;;;;419.27;400.30;;;7.20;99.90;;;;;;4362787;32;20197;-61
2021/11/24 03:28:58;;;;;;;426.83;407.63;;;7.10;99.90;;;;;;4362164;32;20195;-61
2021/11/24 03:31:28;;;;;;;419.20;400.30;;;7.20;99.90;;;;;;4366971;32;20250;-61
2021/11/24 03:33:55;;;;;;;402.10;384.13;;;7.20;99.90;;;;;;4375789;32;20187;-60
2021/11/24 03:36:21;;;;;;;403.87;385.93;;;7.20;99.90;;;;;;4377011;32;20152;-61
2021/11/24 03:38:48;;;;;;;400.20;382.57;;;7.20;99.90;;;;;;4375440;32;20204;-61
2021/11/24 03:41:15;;;;;;;415.90;397.20;;;7.20;99.90;;;;;;4376259;32;20244;-61
2021/11/24 03:43:42;;;;;;;421.70;402.97;;;7.20;99.90;;;;;;4377875;32;20531;-60
2021/11/24 03:46:09;;;;;;;426.73;407.67;;;7.20;99.90;;;;;;4375435;32;20216;-62
2021/11/24 03:48:37;;;;;;;396.70;379.27;;;7.20;99.90;;;;;;4377905;32;20164;-61
2021/11/24 03:51:04;;;;;;;409.63;391.20;;;7.30;99.90;;;;;;4376251;32;20149;-62
2021/11/24 03:53:31;;;;;;;410.97;392.23;;;7.20;99.90;;;;;;4376238;32;20152;-61
2021/11/24 03:55:57;;;;;;;415.30;396.70;;;7.30;99.90;;;;;;4376957;32;20152;-61
2021/11/24 03:58:24;;;;;;;408.43;390.43;;;7.20;99.90;;;;;;4377630;32;20220;-61
2021/11/24 04:00:51;;;;;;;412.27;393.70;;;7.20;99.90;;;;;;4372888;32;20188;-61
2021/11/24 04:03:18;;;;;;;418.13;399.17;;;7.20;99.90;;;;;;4367764;32;20176;-62
2021/11/24 04:05:46;;;;;;;401.27;383.57;;;7.20;99.90;;;;;;4377439;32;20196;-61
2021/11/24 04:08:13;;;;;;;434.63;414.70;;;7.30;99.90;;;;;;4389358;32;20481;-61
2021/11/24 04:10:39;;;;;;;454.47;433.57;;;7.30;99.90;;;;;;4390890;32;20183;-61
2021/11/24 04:13:06;;;;;;;421.13;402.03;;;7.30;99.90;;;;;;4382923;32;20216;-62
2021/11/24 04:15:33;;;;;;;419.40;400.17;;;7.30;99.90;;;;;;4375982;32;20191;-61
2021/11/24 04:18:00;;;;;;;425.40;406.10;;;7.30;99.90;;;;;;4375476;32;20222;-61
2021/11/24 04:20:27;;;;;;;427.43;408.23;;;7.30;99.90;;;;;;4377604;32;20164;-61
2021/11/24 04:22:55;;;;;;;427.27;407.20;;;7.30;99.90;;;;;;4375634;32;20159;-61
2021/11/24 04:25:22;;;;;;;423.40;403.40;;;7.40;99.90;;;;;;4377370;32;20206;-61
2021/11/24 04:27:49;;;;;;;415.13;396.03;;;7.30;99.90;;;;;;4377432;32;20473;-61
2021/11/24 04:30:18;;;;;;;413.80;394.73;;;7.30;99.90;;;;;;4375656;32;20157;-61
2021/11/24 04:32:45;;;;;;;430.37;410.60;;;7.30;99.90;;;;;;4377148;32;20660;-61
2021/11/24 04:35:12;;;;;;;415.87;396.83;;;7.30;99.90;;;;;;4375153;32;20192;-61
2021/11/24 04:37:39;;;;;;;406.60;387.77;;;7.30;99.90;;;;;;4376920;32;20179;-61
2021/11/24 04:40:09;;;;;;;422.60;403.00;;;7.10;99.90;;;;;;4377366;32;20145;-61
2021/11/24 04:42:38;;;;;;;407.50;389.07;;;7.10;99.90;;;;;;4375573;32;20221;-61
2021/11/24 04:45:05;;;;;;;408.10;389.73;;;7.20;99.90;;;;;;4285169;32;2975465;-61
2021/11/24 04:47:32;;;;;;;416.77;397.63;;;7.20;99.90;;;;;;4376412;32;20164;-61
2021/11/24 04:49:59;;;;;;;410.30;391.57;;;7.30;99.90;;;;;;4376633;32;20528;-61
2021/11/24 04:52:26;;;;;;;412.53;393.67;;;7.30;99.90;;;;;;4377127;32;20247;-61
2021/11/24 04:54:53;;;;;;;427.43;408.20;;;7.30;99.90;;;;;;4377033;32;20144;-61
2021/11/24 04:57:21;;;;;;;427.17;407.77;;;7.20;99.90;;;;;;4374902;32;20220;-61
2021/11/24 04:59:48;;;;;;;422.87;403.57;;;7.30;99.90;;;;;;4369500;32;20141;-60
2021/11/24 05:02:15;;;;;;;415.67;396.47;;;7.30;99.90;;;;;;4376677;32;20204;-61
2021/11/24 05:04:41;;;;;;;420.73;401.57;;;7.30;99.90;;;;;;4373263;32;20228;-61
2021/11/24 05:07:08;;;;;;;429.43;409.50;;;7.30;99.90;;;;;;4374540;32;20166;-61
2021/11/24 05:09:35;;;;;;;431.27;412.03;;;7.30;99.90;;;;;;4376965;32;20180;-61
2021/11/24 05:12:03;;;;;;;416.03;397.27;;;7.30;99.90;;;;;;4375271;32;20204;-62
2021/11/24 05:14:36;;;;;;;412.40;393.83;;;7.30;99.90;;;;;;4377399;32;20164;-61
2021/11/24 05:17:05;;;;;;;406.40;387.93;;;7.30;99.90;;;;;;4380112;32;20159;-61
2021/11/24 05:19:36;;;;;;;409.47;391.23;;;7.20;99.90;;;;;;4379755;32;20162;-61
2021/11/24 05:22:04;;;;;;;432.27;412.60;;;7.20;99.90;;;;;;4379250;32;20144;-62
2021/11/24 05:24:31;;;;;;;431.87;412.17;;;7.20;99.90;;;;;;4379804;32;20479;-61
2021/11/24 05:26:58;;;;;;;422.67;403.37;;;7.30;99.90;;;;;;4379539;32;20533;-61
2021/11/24 05:29:24;;;;;;;422.40;403.07;;;7.20;99.90;;;;;;4378582;32;20607;-60
2021/11/24 05:31:52;;;;;;;414.90;395.73;;;7.30;99.90;;;;;;4379775;32;20597;-62
2021/11/24 05:34:19;;;;;;;442.87;422.33;;;7.30;99.90;;;;;;4379087;32;20145;-61
2021/11/24 05:36:46;;;;;;;435.10;415.40;;;7.30;99.90;;;;;;4379782;32;20546;-61
2021/11/24 05:39:13;;;;;;;416.77;397.67;;;7.20;99.90;;;;;;4377274;32;20161;-61
2021/11/24 05:41:41;;;;;;;434.90;414.93;;;7.30;99.90;;;;;;4378038;32;20148;-61
2021/11/24 05:44:18;;;;;;;413.30;394.97;;;7.30;99.90;;;;;;4378816;32;20159;-61
2021/11/24 05:46:49;;;;;;;427.17;407.87;;;7.20;99.90;;;;;;4377972;32;20231;-61
2021/11/24 05:49:18;;;;;;;415.43;396.43;;;7.20;99.90;;;;;;4378952;32;20549;-62
2021/11/24 05:51:47;;;;;;;433.10;413.23;;;7.30;99.90;;;;;;4379413;32;20274;-61
2021/11/24 05:54:13;;;;;;;424.37;405.33;;;7.30;99.90;;;;;;4374873;32;20211;-61
2021/11/24 05:56:40;;;;;;;424.10;404.77;;;7.40;99.90;;;;;;4373271;32;20179;-61
2021/11/24 05:59:08;;;;;;;423.47;403.83;;;7.40;99.90;;;;;;4377657;32;20211;-61
2021/11/24 06:01:36;;;;;;;437.60;417.33;;;7.40;99.90;;;;;;4378952;32;20160;-60
2021/11/24 06:04:03;;;;;;;426.83;407.40;;;7.40;99.90;;;;;;4375757;32;20182;-61
2021/11/24 06:06:31;;;;;;;424.93;405.20;;;7.40;99.90;;;;;;4362298;33;20165;-60
2021/11/24 06:08:58;;;;;;;411.27;392.33;;;7.30;99.90;;;;;;4362647;33;20157;-61
2021/11/24 06:11:25;;;;;;;423.10;403.57;;;7.40;99.90;;;;;;4361305;32;20665;-61
2021/11/24 06:13:52;;;;;;;434.17;414.37;;;7.40;99.90;;;;;;4377082;32;20168;-61
2021/11/24 06:16:20;;;;;;;417.43;398.60;;;7.40;99.90;;;;;;4377380;32;20592;-62
2021/11/24 06:18:47;;;;;;;422.67;402.67;;;7.40;99.90;;;;;;4375295;32;20163;-61
2021/11/24 06:21:14;;;;;;;443.57;423.30;;;7.40;99.90;;;;;;4378418;32;20183;-60
2021/11/24 06:23:42;;;;;;;418.47;398.87;;;7.40;99.90;;;;;;4376617;32;20228;-62
2021/11/24 06:26:09;;;;;;;408.33;389.20;;;7.40;99.90;;;;;;4377450;32;20145;-61
2021/11/24 06:28:37;;;;;;;422.47;402.93;;;7.40;99.90;;;;;;4374997;32;20150;-61
2021/11/24 06:31:04;;;;;;;435.93;415.90;;;7.40;99.90;;;;;;4375356;32;20223;-61
2021/11/24 06:33:31;;;;;;;435.27;415.17;;;7.40;99.90;;;;;;4377942;32;20148;-61
2021/11/24 06:35:58;;;;;;;429.27;408.87;;;7.30;99.90;;;;;;4372819;32;20225;-61
2021/11/24 06:38:25;;;;;;;421.23;401.60;;;7.30;99.90;;;;;;4374997;32;20222;-61
2021/11/24 06:40:53;;;;;;;419.20;399.20;;;7.30;99.90;;;;;;4374304;32;20171;-60
2021/11/24 06:43:21;;;;;;;442.93;421.27;;;7.40;99.90;;;;;;4375954;32;20282;-62
2021/11/24 06:45:47;;;;;;;441.23;419.93;;;7.40;99.90;;;;;;4376130;32;20228;-61
2021/11/24 06:48:14;;;;;;;444.57;423.53;;;7.40;99.90;;;;;;4374907;32;20232;-61
2021/11/24 06:50:41;;;;;;;428.73;408.50;;;7.40;99.90;;;;;;4375467;32;20167;-61
2021/11/24 06:53:08;;;;;;;434.50;413.83;;;7.40;99.90;;;;;;4377393;32;20148;-60
2021/11/24 06:55:35;;;;;;;420.00;400.27;;;7.40;99.90;;;;;;4376289;32;20568;-61
2021/11/24 06:58:03;;;;;;;425.10;405.10;;;7.30;99.90;;;;;;4376170;32;20177;-60
2021/11/24 07:00:30;;;;;;;427.83;407.73;;;7.30;99.90;;;;;;4374995;32;20523;-61
2021/11/24 07:02:57;;;;;;;436.93;416.33;;;7.30;99.90;;;;;;4372506;32;20185;-61
2021/11/24 07:05:23;;;;;;;423.20;403.13;;;7.40;99.90;;;;;;4375225;32;20179;-60
2021/11/24 07:07:50;;;;;;;439.70;418.47;;;7.40;99.90;;;;;;4374793;32;20231;-60
2021/11/24 07:10:17;;;;;;;435.93;415.27;;;7.30;99.90;;;;;;4374951;32;20188;-61
2021/11/24 07:12:44;;;;;;;438.63;417.13;;;7.40;99.90;;;;;;4373702;32;20231;-61
2021/11/24 07:15:12;;;;;;;425.17;404.93;;;7.40;99.90;;;;;;4376828;32;20537;-61
2021/11/24 07:17:39;;;;;;;447.83;426.50;;;7.40;99.90;;;;;;4377229;32;20144;-60
2021/11/24 07:20:06;;;;;;;431.57;410.87;;;7.40;99.90;;;;;;4378083;32;20190;-61
2021/11/24 07:22:34;;;;;;;415.50;395.63;;;7.40;99.90;;;;;;4378199;32;20571;-61
2021/11/24 07:25:01;;;;;;;423.40;403.20;;;7.40;99.90;;;;;;4376597;32;20169;-60
2021/11/24 07:27:27;;;;;;;455.27;433.57;;;7.40;99.90;;;;;;4376476;32;20182;-61
2021/11/24 07:29:54;;;;;;;419.47;399.47;;;7.40;99.90;;;;;;4377277;32;20159;-61
2021/11/24 07:32:22;;;;;;;435.67;415.17;;;7.40;99.90;;;;;;4377276;32;20172;-61
2021/11/24 07:34:49;;;;;;;436.97;415.90;;;7.40;99.90;;;;;;4378101;32;20136;-62
2021/11/24 07:37:16;;;;;;;437.67;416.73;;;7.40;99.90;;;;;;4376407;32;20188;-61
2021/11/24 07:39:44;;;;;;;446.27;424.80;;;7.50;99.90;;;;;;4376342;32;20224;-61
2021/11/24 07:42:12;;;;;;;418.83;399.23;;;7.50;99.90;;;;;;4376446;32;20183;-61
2021/11/24 07:44:39;;;;;;;430.77;410.13;;;7.50;99.90;;;;;;4376990;32;20231;-61
2021/11/24 07:47:06;;;;;;;441.83;420.37;;;7.50;99.90;;;;;;4376283;32;20167;-61
2021/11/24 07:49:34;;;;;;;448.30;426.70;;;7.50;99.90;;;;;;4377839;32;20461;-61
2021/11/24 07:52:01;;;;;;;441.17;419.53;;;7.60;99.90;;;;;;4377904;32;20136;-61
2021/11/24 07:54:28;;;;;;;427.67;407.00;;;7.50;99.90;;;;;;4375967;32;20175;-62
2021/11/24 07:56:55;;;;;;;469.67;447.00;;;7.60;99.90;;;;;;4376692;32;20176;-60
2021/11/24 07:59:22;;;;;;;437.30;415.97;;;7.60;99.90;;;;;;4377097;32;20170;-62
2021/11/24 08:01:49;;;;;;;455.40;433.40;;;7.60;99.90;;;;;;4376717;32;20476;-60
2021/11/24 08:04:16;;;;;;;450.13;428.47;;;7.60;99.90;;;;;;4375695;32;20451;-61
2021/11/24 08:06:44;;;;;;;432.50;411.30;;;7.60;99.90;;;;;;4376850;32;20153;-61
2021/11/24 08:09:11;;;;;;;447.10;425.67;;;7.70;99.90;;;;;;4375879;32;20170;-62
2021/11/24 08:11:38;;;;;;;431.70;411.13;;;7.70;99.90;;;;;;4377544;32;20468;-60
2021/11/24 08:14:05;;;;;;;442.37;421.33;;;7.70;99.90;;;;;;4376633;32;20229;-61
2021/11/24 08:16:32;;;;;;;429.67;409.03;;;7.70;99.90;;;;;;4372482;32;20141;-60
2021/11/24 08:18:59;;;;;;;429.90;409.77;;;7.80;99.90;;;;;;4370829;32;20145;-61
2021/11/24 08:21:26;;;;;;;439.63;418.70;;;7.80;99.90;;;;;;4375781;32;20160;-60
2021/11/24 08:23:54;;;;;;;438.90;417.93;;;7.80;99.90;;;;;;4377457;32;20141;-61
2021/11/24 08:26:21;;;;;;;439.63;418.47;;;7.80;99.90;;;;;;4362886;32;20167;-60
2021/11/24 08:28:48;;;;;;;438.43;417.63;;;7.80;99.90;;;;;;4362509;32;20159;-62
2021/11/24 08:31:15;;;;;;;445.23;424.03;;;7.80;99.90;;;;;;4364673;32;20171;-61
2021/11/24 08:33:41;;;;;;;435.17;414.70;;;7.90;99.90;;;;;;4375162;32;20470;-61
2021/11/24 08:36:11;;;;;;;434.60;413.90;;;7.90;99.90;;;;;;4375479;32;20150;-61
2021/11/24 08:38:38;;;;;;;436.83;416.27;;;7.90;99.90;;;;;;4376933;32;20141;-61
2021/11/24 08:41:07;;;;;;;432.33;411.80;;;7.90;99.90;;;;;;4377201;32;20140;-61
2021/11/24 08:43:34;;;;;;;458.90;437.03;;;8.00;99.90;;;;;;4375620;32;20140;-62
2021/11/24 08:46:01;;;;;;;450.17;428.60;;;8.00;99.90;;;;;;4375569;32;20157;-61
2021/11/24 08:48:28;;;;;;;444.43;423.50;;;8.10;99.90;;;;;;4375222;32;20156;-61
2021/11/24 08:50:55;;;;;;;446.40;425.27;;;8.10;99.90;;;;;;4377258;32;20160;-61
2021/11/24 08:53:22;;;;;;;448.30;426.53;;;8.20;99.90;;;;;;4376931;32;20145;-61
2021/11/24 08:55:49;;;;;;;441.97;421.40;;;8.20;99.90;;;;;;4376121;32;20140;-61
2021/11/24 08:58:18;;;;;;;440.33;419.53;;;8.30;99.90;;;;;;4377001;32;20157;-61
2021/11/24 09:00:46;;;;;;;429.23;409.20;;;8.30;99.90;;;;;;4376189;32;20160;-61
2021/11/24 09:03:15;;;;;;;446.60;425.73;;;8.30;99.90;;;;;;4376823;32;20141;-61
2021/11/24 09:05:43;;;;;;;445.20;424.37;;;8.40;99.90;;;;;;4375393;32;20151;-61
2021/11/24 09:08:10;;;;;;;450.20;428.83;;;8.50;99.90;;;;;;4375526;32;20156;-61
2021/11/24 09:10:38;;;;;;;477.17;454.43;;;8.50;99.90;;;;;;4376907;32;20145;-61
2021/11/24 09:13:05;;;;;;;466.87;444.60;;;8.50;99.90;;;;;;4375424;32;20155;-61
2021/11/24 09:15:34;;;;;;;465.23;443.07;;;8.60;99.90;;;;;;4376757;32;20633;-61
2021/11/24 09:18:02;;;;;;;444.63;423.97;;;8.60;99.90;;;;;;4376801;32;20155;-61
2021/11/24 09:20:29;;;;;;;459.53;437.70;;;8.60;99.90;;;;;;4377034;32;20162;-61
2021/11/24 09:22:56;;;;;;;448.17;427.33;;;8.60;99.90;;;;;;4376930;32;20159;-61
2021/11/24 09:25:25;;;;;;;458.77;437.00;;;8.60;99.90;;;;;;4376978;32;20203;-61
2021/11/24 09:27:58;;;;;;;448.70;427.57;;;8.60;99.90;;;;;;4375419;32;20160;-61
2021/11/24 09:30:26;;;;;;;457.73;436.20;;;8.60;99.90;;;;;;4376571;32;20165;-61
2021/11/24 09:32:55;;;;;;;470.93;448.50;;;8.60;99.90;;;;;;4375381;32;20159;-61
2021/11/24 09:35:23;;;;;;;447.37;426.33;;;8.80;99.90;;;;;;4376809;32;20169;-61
2021/11/24 09:37:50;;;;;;;468.40;445.87;;;8.80;99.90;;;;;;4375260;32;20172;-61
2021/11/24 09:40:17;;;;;;;478.43;455.60;;;8.80;99.90;;;;;;4376750;32;20512;-61
2021/11/24 09:42:49;;;;;;;469.90;447.37;;;8.90;99.90;;;;;;4375178;32;20182;-61
2021/11/24 09:45:17;;;;;;;469.80;447.50;;;8.90;99.90;;;;;;4374692;32;20604;-61
2021/11/24 09:47:46;;;;;;;478.37;455.27;;;8.90;99.90;;;;;;4376839;32;20157;-61
2021/11/24 09:50:17;;;;;;;474.80;452.23;;;8.90;99.90;;;;;;4375133;32;20163;-61
2021/11/24 09:52:46;;;;;;;470.93;448.47;;;9.00;99.90;;;;;;4376832;32;20136;-61
2021/11/24 09:55:13;;;;;;;464.07;442.33;;;9.10;99.90;;;;;;4375066;32;20550;-61
2021/11/24 09:57:41;;;;;;;488.80;465.73;;;9.00;99.90;;;;;;4376121;32;20163;-61
2021/11/24 10:00:09;;;;;;;481.43;458.90;;;9.10;99.90;;;;;;4375215;32;20288;-61
2021/11/24 10:02:37;;;;;;;472.70;450.77;;;9.00;99.90;;;;;;4377599;32;20145;-61
2021/11/24 10:05:05;;;;;;;469.37;447.43;;;9.10;99.90;;;;;;4377735;32;20229;-61
2021/11/24 10:07:34;;;;;;;470.03;448.13;;;9.00;99.90;;;;;;4377741;32;20145;-61
2021/11/24 10:10:00;;;;;;;468.33;446.27;;;9.00;99.90;;;;;;4377974;32;20155;-61
2021/11/24 10:12:27;;;;;;;469.40;447.07;;;8.90;99.90;;;;;;4379298;32;20565;-61
2021/11/24 10:14:54;;;;;;;470.87;449.00;;;8.90;99.90;;;;;;4377680;32;20215;-61
2021/11/24 10:17:24;;;;;;;460.40;438.70;;;9.00;99.90;;;;;;4378860;32;20187;-61
2021/11/24 10:20:03;;;;;;;463.67;441.90;;;9.00;99.90;;;;;;4377492;32;20135;-61
2021/11/24 10:22:32;;;;;;;470.40;448.57;;;9.00;99.90;;;;;;4378059;32;20167;-61
2021/11/24 10:25:07;;;;;;;484.83;461.63;;;8.90;99.90;;;;;;4377468;32;20198;-61
2021/11/24 10:27:37;;;;;;;481.30;458.67;;;9.00;99.90;;;;;;4377451;32;20140;-59
2021/11/24 10:30:06;;;;;;;478.37;455.73;;;9.00;99.90;;;;;;4378649;32;20137;-59
2021/11/24 10:32:33;;;;;;;489.97;466.83;;;9.00;99.90;;;;;;4378943;32;20141;-59
2021/11/24 10:35:00;;;;;;;444.20;423.63;;;9.00;99.90;;;;;;4378798;32;20161;-59
2021/11/24 10:37:27;;;;;;;458.87;437.23;;;8.90;99.90;;;;;;4376876;32;20167;-59
2021/11/24 10:39:58;;;;;;;467.63;445.70;;;8.90;99.90;;;;;;4378718;32;20159;-59
2021/11/24 10:42:31;;;;;;;455.37;434.53;;;8.90;99.90;;;;;;4377117;32;20150;-59
2021/11/24 10:45:00;;;;;;;462.90;441.33;;;8.80;99.90;;;;;;4377381;32;20168;-60
2021/11/24 10:47:28;;;;;;;483.23;460.73;;;8.90;99.90;;;;;;4378708;32;20137;-61
2021/11/24 10:49:57;;;;;;;463.27;441.80;;;8.90;99.90;;;;;;4378595;32;20138;-61
2021/11/24 10:52:26;;;;;;;471.70;449.63;;;9.00;99.90;;;;;;4377063;32;20169;-61
2021/11/24 10:55:17;;;;;;;477.87;455.80;;;8.90;99.90;;;;;;4378596;32;20139;-61
2021/11/24 10:57:58;;;;;;;469.77;448.00;;;9.00;99.90;;;;;;4378254;32;20511;-60
2021/11/24 11:00:34;;;;;;;463.07;441.83;;;9.10;99.90;;;;;;4372182;32;20622;-60
2021/11/24 11:03:01;;;;;;;463.27;441.50;;;9.20;99.90;;;;;;4376828;32;20270;-61
2021/11/24 11:05:28;;;;;;;456.40;435.37;;;9.10;99.90;;;;;;4376732;32;20180;-60
2021/11/24 11:08:08;;;;;;;466.83;444.97;;;9.10;99.90;;;;;;4378372;32;20154;-61
2021/11/24 11:10:39;;;;;;;461.53;440.03;;;9.10;99.90;;;;;;4377309;32;20182;-61
2021/11/24 11:13:11;;;;;;;474.27;452.13;;;9.10;99.90;;;;;;4378197;32;20166;-61
2021/11/24 11:15:39;;;;;;;465.87;443.90;;;9.20;99.90;;;;;;4378097;32;20553;-61
2021/11/24 11:18:12;;;;;;;463.00;441.23;;;9.10;99.90;;;;;;4362014;32;20169;-62
2021/11/24 11:20:46;;;;;;;471.67;449.20;;;9.20;99.90;;;;;;4370100;32;20197;-60
2021/11/24 11:23:19;;;;;;;484.03;461.27;;;9.30;99.90;;;;;;4378129;32;20151;-61
2021/11/24 11:25:48;;;;;;;491.23;467.60;;;9.30;99.90;;;;;;4375773;32;20159;-61
2021/11/24 11:28:18;;;;;;;486.50;463.67;;;9.40;99.90;;;;;;4375025;32;20725;-60
2021/11/24 11:30:48;;;;;;;487.30;464.03;;;9.40;99.90;;;;;;4376069;32;20172;-61
2021/11/24 11:33:19;;;;;;;479.37;456.77;;;9.50;99.90;;;;;;4376841;32;20465;-61
2021/11/24 11:35:46;;;;;;;489.00;465.83;;;9.50;99.90;;;;;;4375504;32;20641;-61
2021/11/24 11:38:16;;;;;;;481.67;458.83;;;9.50;99.90;;;;;;4376030;32;20171;-61
2021/11/24 11:40:44;;;;;;;469.10;447.20;;;9.50;99.90;;;;;;4376273;32;20142;-61
2021/11/24 11:43:11;;;;;;;486.80;463.87;;;9.50;99.90;;;;;;4375834;32;20194;-62
2021/11/24 11:45:40;;;;;;;474.77;452.10;;;9.50;99.90;;;;;;4376135;32;20599;-61
2021/11/24 11:48:10;;;;;;;480.50;457.37;;;9.60;99.90;;;;;;4376042;32;20143;-60
2021/11/24 11:50:54;;;;;;;482.87;459.37;;;9.50;99.90;;;;;;4375159;32;20156;-60
2021/11/24 11:53:24;;;;;;;475.63;453.17;;;9.50;99.90;;;;;;4375390;32;20183;-62
2021/11/24 11:56:24;;;;;;;481.20;458.40;;;9.60;99.90;;;;;;4375907;32;20519;-61
2021/11/24 11:59:00;;;;;;;476.43;453.67;;;9.50;99.90;;;;;;4374813;32;20293;-60
2021/11/24 12:01:32;;;;;;;471.73;449.33;;;9.50;99.90;;;;;;4374630;32;20168;-60
2021/11/24 12:04:20;;;;;;;481.10;458.20;;;9.30;99.90;;;;;;4375020;32;20174;-60
2021/11/24 12:07:01;;;;;;;495.37;471.73;;;9.30;99.90;;;;;;4375959;32;20148;-61
2021/11/24 12:09:34;;;;;;;462.80;440.30;;;9.30;99.90;;;;;;4375698;32;20166;-62
2021/11/24 12:12:12;;;;;;;476.00;452.60;;;9.30;99.90;;;;;;4375879;32;20497;-61
2021/11/24 12:14:54;;;;;;;489.00;464.77;;;9.30;99.90;;;;;;4373733;32;20193;-60
2021/11/24 12:17:41;;;;;;;485.90;462.03;;;9.30;99.90;;;;;;4368648;32;20214;-61
2021/11/24 12:20:40;;;;;;;476.77;453.30;;;9.30;99.90;;;;;;4373345;32;20630;-61
2021/11/24 12:23:14;;;;;;;463.90;441.03;;;9.20;99.90;;;;;;4361967;32;20142;-62